sensor_id;sensor_type;location;lat;lon;timestamp;P1;durP1;ratioP1;P2;durP2;ratioP2
568;SDS011;269;48.884;9.192;2022-12-18T00:01:01;71.32;;;42.50;;
568;SDS011;269;48.884;9.192;2022-12-18T00:03:31;67.35;;;43.47;;
568;SDS011;269;48.884;9.192;2022-12-18T00:05:59;77.72;;;45.88;;
568;SDS011;269;48.884;9.192;2022-12-18T00:08:27;71.63;;;44.72;;
568;SDS011;269;48.884;9.192;2022-12-18T00:10:54;72.78;;;44.42;;
568;SDS011;269;48.884;9.192;2022-12-18T00:13:21;70.65;;;41.85;;
568;SDS011;269;48.884;9.192;2022-12-18T00:15:48;72.68;;;43.03;;
568;SDS011;269;48.884;9.192;2022-12-18T00:18:17;71.85;;;45.58;;
568;SDS011;269;48.884;9.192;2022-12-18T00:20:44;68.88;;;44.35;;
568;SDS011;269;48.884;9.192;2022-12-18T00:23:11;67.65;;;43.50;;
568;SDS011;269;48.884;9.192;2022-12-18T00:25:39;64.43;;;45.00;;
568;SDS011;269;48.884;9.192;2022-12-18T00:28:06;69.72;;;45.10;;
568;SDS011;269;48.884;9.192;2022-12-18T00:30:33;73.80;;;44.95;;
568;SDS011;269;48.884;9.192;2022-12-18T00:33:00;74.60;;;44.85;;
568;SDS011;269;48.884;9.192;2022-12-18T00:35:29;73.82;;;46.30;;
568;SDS011;269;48.884;9.192;2022-12-18T00:37:57;70.25;;;46.40;;
568;SDS011;269;48.884;9.192;2022-12-18T00:40:24;73.22;;;46.15;;
568;SDS011;269;48.884;9.192;2022-12-18T00:42:51;68.93;;;45.88;;
568;SDS011;269;48.884;9.192;2022-12-18T00:45:24;65.57;;;44.13;;
568;SDS011;269;48.884;9.192;2022-12-18T00:47:52;70.10;;;42.42;;
568;SDS011;269;48.884;9.192;2022-12-18T00:50:19;70.82;;;45.85;;
568;SDS011;269;48.884;9.192;2022-12-18T00:52:48;78.70;;;46.28;;
568;SDS011;269;48.884;9.192;2022-12-18T00:55:16;70.40;;;45.13;;
568;SDS011;269;48.884;9.192;2022-12-18T00:57:43;69.35;;;44.10;;
568;SDS011;269;48.884;9.192;2022-12-18T01:00:11;69.40;;;43.38;;
568;SDS011;269;48.884;9.192;2022-12-18T01:02:40;74.30;;;45.67;;
568;SDS011;269;48.884;9.192;2022-12-18T01:05:07;71.80;;;44.15;;
568;SDS011;269;48.884;9.192;2022-12-18T01:07:35;70.03;;;45.20;;
568;SDS011;269;48.884;9.192;2022-12-18T01:10:05;64.03;;;44.15;;
568;SDS011;269;48.884;9.192;2022-12-18T01:12:32;72.53;;;49.35;;
568;SDS011;269;48.884;9.192;2022-12-18T01:15:00;70.40;;;47.40;;
568;SDS011;269;48.884;9.192;2022-12-18T01:17:27;73.07;;;45.95;;
568;SDS011;269;48.884;9.192;2022-12-18T01:19:54;72.45;;;49.45;;
568;SDS011;269;48.884;9.192;2022-12-18T01:22:21;76.63;;;49.90;;
568;SDS011;269;48.884;9.192;2022-12-18T01:24:48;69.43;;;45.40;;
568;SDS011;269;48.884;9.192;2022-12-18T01:27:17;75.47;;;44.85;;
568;SDS011;269;48.884;9.192;2022-12-18T01:29:44;71.38;;;46.60;;
568;SDS011;269;48.884;9.192;2022-12-18T01:32:11;72.28;;;48.85;;
568;SDS011;269;48.884;9.192;2022-12-18T01:34:38;73.70;;;48.92;;
568;SDS011;269;48.884;9.192;2022-12-18T01:37:06;70.95;;;46.47;;
568;SDS011;269;48.884;9.192;2022-12-18T01:39:33;72.78;;;48.47;;
568;SDS011;269;48.884;9.192;2022-12-18T01:42:00;71.07;;;48.40;;
568;SDS011;269;48.884;9.192;2022-12-18T01:44:59;81.35;;;51.03;;
568;SDS011;269;48.884;9.192;2022-12-18T01:47:33;71.20;;;45.60;;
568;SDS011;269;48.884;9.192;2022-12-18T01:50:04;73.63;;;49.92;;
568;SDS011;269;48.884;9.192;2022-12-18T01:52:34;70.35;;;44.83;;
568;SDS011;269;48.884;9.192;2022-12-18T01:55:03;72.43;;;48.00;;
568;SDS011;269;48.884;9.192;2022-12-18T01:57:32;75.13;;;46.20;;
568;SDS011;269;48.884;9.192;2022-12-18T02:00:03;69.45;;;46.00;;
568;SDS011;269;48.884;9.192;2022-12-18T02:02:33;72.13;;;50.10;;
568;SDS011;269;48.884;9.192;2022-12-18T02:05:02;73.93;;;47.67;;
568;SDS011;269;48.884;9.192;2022-12-18T02:07:32;71.35;;;46.60;;
568;SDS011;269;48.884;9.192;2022-12-18T02:10:06;67.60;;;42.65;;
568;SDS011;269;48.884;9.192;2022-12-18T02:12:42;69.32;;;43.40;;
568;SDS011;269;48.884;9.192;2022-12-18T02:15:14;74.05;;;46.80;;
568;SDS011;269;48.884;9.192;2022-12-18T02:17:46;74.75;;;44.53;;
568;SDS011;269;48.884;9.192;2022-12-18T02:20:20;76.05;;;42.67;;
568;SDS011;269;48.884;9.192;2022-12-18T02:23:01;64.18;;;39.63;;
568;SDS011;269;48.884;9.192;2022-12-18T02:28:25;63.63;;;43.30;;
568;SDS011;269;48.884;9.192;2022-12-18T02:30:58;67.65;;;42.88;;
568;SDS011;269;48.884;9.192;2022-12-18T02:33:28;66.55;;;41.90;;
568;SDS011;269;48.884;9.192;2022-12-18T02:35:57;64.93;;;39.88;;
568;SDS011;269;48.884;9.192;2022-12-18T02:38:26;68.03;;;43.92;;
568;SDS011;269;48.884;9.192;2022-12-18T02:40:56;72.40;;;45.40;;
568;SDS011;269;48.884;9.192;2022-12-18T02:43:24;67.40;;;41.28;;
568;SDS011;269;48.884;9.192;2022-12-18T02:45:52;67.22;;;42.15;;
568;SDS011;269;48.884;9.192;2022-12-18T02:48:22;68.25;;;40.58;;
568;SDS011;269;48.884;9.192;2022-12-18T02:50:52;61.85;;;40.88;;
568;SDS011;269;48.884;9.192;2022-12-18T02:53:27;66.28;;;38.97;;
568;SDS011;269;48.884;9.192;2022-12-18T02:56:03;63.78;;;40.30;;
568;SDS011;269;48.884;9.192;2022-12-18T02:58:37;61.35;;;38.25;;
568;SDS011;269;48.884;9.192;2022-12-18T03:01:15;58.15;;;37.75;;
568;SDS011;269;48.884;9.192;2022-12-18T03:03:47;69.00;;;40.53;;
568;SDS011;269;48.884;9.192;2022-12-18T03:06:20;59.22;;;35.33;;
568;SDS011;269;48.884;9.192;2022-12-18T03:08:52;63.10;;;37.30;;
568;SDS011;269;48.884;9.192;2022-12-18T03:11:26;62.55;;;40.05;;
568;SDS011;269;48.884;9.192;2022-12-18T03:14:14;59.58;;;41.08;;
568;SDS011;269;48.884;9.192;2022-12-18T03:16:43;65.10;;;41.30;;
568;SDS011;269;48.884;9.192;2022-12-18T03:19:12;62.35;;;37.75;;
568;SDS011;269;48.884;9.192;2022-12-18T03:21:45;59.63;;;37.45;;
568;SDS011;269;48.884;9.192;2022-12-18T03:24:15;60.08;;;37.78;;
568;SDS011;269;48.884;9.192;2022-12-18T03:26:47;55.38;;;34.83;;
568;SDS011;269;48.884;9.192;2022-12-18T03:29:17;59.42;;;38.17;;
568;SDS011;269;48.884;9.192;2022-12-18T03:31:49;59.90;;;36.65;;
568;SDS011;269;48.884;9.192;2022-12-18T03:34:21;63.03;;;39.50;;
568;SDS011;269;48.884;9.192;2022-12-18T03:36:52;57.60;;;38.13;;
568;SDS011;269;48.884;9.192;2022-12-18T03:39:19;60.25;;;39.00;;
568;SDS011;269;48.884;9.192;2022-12-18T03:41:49;64.93;;;39.95;;
568;SDS011;269;48.884;9.192;2022-12-18T03:44:26;55.65;;;38.53;;
568;SDS011;269;48.884;9.192;2022-12-18T03:46:58;55.38;;;34.67;;
568;SDS011;269;48.884;9.192;2022-12-18T03:49:32;56.67;;;36.33;;
568;SDS011;269;48.884;9.192;2022-12-18T03:52:06;52.97;;;34.00;;
568;SDS011;269;48.884;9.192;2022-12-18T03:54:37;53.80;;;33.83;;
568;SDS011;269;48.884;9.192;2022-12-18T03:57:09;56.55;;;37.55;;
568;SDS011;269;48.884;9.192;2022-12-18T03:59:40;57.17;;;37.78;;
568;SDS011;269;48.884;9.192;2022-12-18T04:02:10;55.40;;;36.50;;
568;SDS011;269;48.884;9.192;2022-12-18T04:04:38;59.05;;;37.63;;
568;SDS011;269;48.884;9.192;2022-12-18T04:07:06;56.25;;;35.17;;
568;SDS011;269;48.884;9.192;2022-12-18T04:09:34;49.10;;;34.97;;
568;SDS011;269;48.884;9.192;2022-12-18T04:12:03;55.00;;;33.97;;
568;SDS011;269;48.884;9.192;2022-12-18T04:14:32;52.20;;;32.08;;
568;SDS011;269;48.884;9.192;2022-12-18T04:17:00;51.38;;;33.33;;
568;SDS011;269;48.884;9.192;2022-12-18T04:19:27;51.63;;;34.03;;
568;SDS011;269;48.884;9.192;2022-12-18T04:21:55;56.70;;;32.90;;
568;SDS011;269;48.884;9.192;2022-12-18T04:24:22;48.40;;;33.70;;
568;SDS011;269;48.884;9.192;2022-12-18T04:26:49;52.10;;;33.40;;
568;SDS011;269;48.884;9.192;2022-12-18T04:29:16;49.60;;;35.28;;
568;SDS011;269;48.884;9.192;2022-12-18T04:31:45;47.75;;;32.28;;
568;SDS011;269;48.884;9.192;2022-12-18T04:34:12;45.60;;;30.33;;
568;SDS011;269;48.884;9.192;2022-12-18T04:36:39;52.45;;;33.17;;
568;SDS011;269;48.884;9.192;2022-12-18T04:39:06;51.55;;;31.00;;
568;SDS011;269;48.884;9.192;2022-12-18T04:41:34;49.67;;;28.83;;
568;SDS011;269;48.884;9.192;2022-12-18T04:44:01;49.53;;;29.85;;
568;SDS011;269;48.884;9.192;2022-12-18T04:46:28;45.38;;;30.65;;
568;SDS011;269;48.884;9.192;2022-12-18T04:48:56;48.22;;;32.65;;
568;SDS011;269;48.884;9.192;2022-12-18T04:51:24;51.38;;;31.10;;
568;SDS011;269;48.884;9.192;2022-12-18T04:53:51;47.03;;;30.98;;
568;SDS011;269;48.884;9.192;2022-12-18T04:56:18;52.20;;;29.67;;
568;SDS011;269;48.884;9.192;2022-12-18T04:58:46;52.35;;;32.40;;
568;SDS011;269;48.884;9.192;2022-12-18T05:01:13;50.60;;;31.35;;
568;SDS011;269;48.884;9.192;2022-12-18T05:03:42;51.42;;;34.20;;
568;SDS011;269;48.884;9.192;2022-12-18T05:06:12;52.42;;;34.38;;
568;SDS011;269;48.884;9.192;2022-12-18T05:08:39;43.78;;;31.02;;
568;SDS011;269;48.884;9.192;2022-12-18T05:11:07;49.10;;;33.70;;
568;SDS011;269;48.884;9.192;2022-12-18T05:13:35;51.40;;;31.98;;
568;SDS011;269;48.884;9.192;2022-12-18T05:16:03;47.95;;;29.40;;
568;SDS011;269;48.884;9.192;2022-12-18T05:18:32;48.85;;;33.15;;
568;SDS011;269;48.884;9.192;2022-12-18T05:21:00;51.55;;;31.98;;
568;SDS011;269;48.884;9.192;2022-12-18T05:23:28;50.55;;;30.10;;
568;SDS011;269;48.884;9.192;2022-12-18T05:25:56;47.95;;;31.52;;
568;SDS011;269;48.884;9.192;2022-12-18T05:28:26;53.75;;;32.45;;
568;SDS011;269;48.884;9.192;2022-12-18T05:30:55;49.00;;;30.02;;
568;SDS011;269;48.884;9.192;2022-12-18T05:33:25;46.28;;;31.95;;
568;SDS011;269;48.884;9.192;2022-12-18T05:35:54;52.72;;;35.15;;
568;SDS011;269;48.884;9.192;2022-12-18T05:38:23;50.83;;;33.05;;
568;SDS011;269;48.884;9.192;2022-12-18T05:40:53;46.45;;;32.70;;
568;SDS011;269;48.884;9.192;2022-12-18T05:43:20;52.53;;;35.83;;
568;SDS011;269;48.884;9.192;2022-12-18T05:45:49;50.88;;;35.60;;
568;SDS011;269;48.884;9.192;2022-12-18T05:48:17;53.45;;;37.38;;
568;SDS011;269;48.884;9.192;2022-12-18T05:50:46;50.50;;;32.47;;
568;SDS011;269;48.884;9.192;2022-12-18T05:53:15;51.70;;;32.80;;
568;SDS011;269;48.884;9.192;2022-12-18T05:55:43;49.33;;;32.45;;
568;SDS011;269;48.884;9.192;2022-12-18T05:58:12;48.15;;;32.55;;
568;SDS011;269;48.884;9.192;2022-12-18T06:00:41;51.85;;;32.40;;
568;SDS011;269;48.884;9.192;2022-12-18T06:03:10;47.33;;;30.20;;
568;SDS011;269;48.884;9.192;2022-12-18T06:05:39;51.60;;;32.30;;
568;SDS011;269;48.884;9.192;2022-12-18T06:08:08;50.00;;;33.45;;
568;SDS011;269;48.884;9.192;2022-12-18T06:10:35;46.75;;;31.05;;
568;SDS011;269;48.884;9.192;2022-12-18T06:13:03;49.67;;;30.17;;
568;SDS011;269;48.884;9.192;2022-12-18T06:15:32;55.20;;;33.75;;
568;SDS011;269;48.884;9.192;2022-12-18T06:18:02;54.78;;;32.30;;
568;SDS011;269;48.884;9.192;2022-12-18T06:20:30;49.67;;;30.58;;
568;SDS011;269;48.884;9.192;2022-12-18T06:22:57;48.95;;;29.38;;
568;SDS011;269;48.884;9.192;2022-12-18T06:25:24;47.63;;;32.05;;
568;SDS011;269;48.884;9.192;2022-12-18T06:27:51;51.25;;;33.97;;
568;SDS011;269;48.884;9.192;2022-12-18T06:30:18;46.33;;;31.02;;
568;SDS011;269;48.884;9.192;2022-12-18T06:32:49;48.25;;;33.10;;
568;SDS011;269;48.884;9.192;2022-12-18T06:35:16;49.45;;;34.53;;
568;SDS011;269;48.884;9.192;2022-12-18T06:37:43;48.88;;;31.92;;
568;SDS011;269;48.884;9.192;2022-12-18T06:40:10;50.55;;;31.60;;
568;SDS011;269;48.884;9.192;2022-12-18T06:42:38;51.92;;;35.17;;
568;SDS011;269;48.884;9.192;2022-12-18T06:45:05;47.67;;;33.47;;
568;SDS011;269;48.884;9.192;2022-12-18T06:47:33;51.45;;;31.60;;
568;SDS011;269;48.884;9.192;2022-12-18T06:50:02;46.50;;;30.45;;
568;SDS011;269;48.884;9.192;2022-12-18T06:52:31;42.72;;;29.50;;
568;SDS011;269;48.884;9.192;2022-12-18T06:54:58;45.22;;;28.90;;
568;SDS011;269;48.884;9.192;2022-12-18T06:57:26;44.47;;;30.60;;
568;SDS011;269;48.884;9.192;2022-12-18T06:59:53;44.97;;;31.13;;
568;SDS011;269;48.884;9.192;2022-12-18T07:02:20;45.80;;;31.48;;
568;SDS011;269;48.884;9.192;2022-12-18T07:04:50;42.70;;;31.13;;
568;SDS011;269;48.884;9.192;2022-12-18T07:07:19;43.55;;;31.55;;
568;SDS011;269;48.884;9.192;2022-12-18T07:09:46;45.47;;;32.47;;
568;SDS011;269;48.884;9.192;2022-12-18T07:12:14;46.47;;;31.88;;
568;SDS011;269;48.884;9.192;2022-12-18T07:14:41;46.47;;;30.08;;
568;SDS011;269;48.884;9.192;2022-12-18T07:17:08;39.67;;;26.55;;
568;SDS011;269;48.884;9.192;2022-12-18T07:19:36;46.33;;;31.70;;
568;SDS011;269;48.884;9.192;2022-12-18T07:22:03;43.95;;;31.50;;
568;SDS011;269;48.884;9.192;2022-12-18T07:24:33;46.85;;;33.85;;
568;SDS011;269;48.884;9.192;2022-12-18T07:27:01;46.10;;;32.38;;
568;SDS011;269;48.884;9.192;2022-12-18T07:29:28;40.10;;;30.52;;
568;SDS011;269;48.884;9.192;2022-12-18T07:31:56;46.10;;;31.23;;
568;SDS011;269;48.884;9.192;2022-12-18T07:34:23;45.72;;;30.65;;
568;SDS011;269;48.884;9.192;2022-12-18T07:36:51;43.88;;;30.38;;
568;SDS011;269;48.884;9.192;2022-12-18T07:39:18;39.70;;;28.05;;
568;SDS011;269;48.884;9.192;2022-12-18T07:41:46;47.22;;;28.67;;
568;SDS011;269;48.884;9.192;2022-12-18T07:44:33;39.50;;;26.75;;
568;SDS011;269;48.884;9.192;2022-12-18T07:47:01;40.78;;;27.25;;
568;SDS011;269;48.884;9.192;2022-12-18T07:49:28;39.88;;;30.15;;
568;SDS011;269;48.884;9.192;2022-12-18T07:51:55;44.03;;;29.52;;
568;SDS011;269;48.884;9.192;2022-12-18T07:54:24;47.03;;;29.83;;
568;SDS011;269;48.884;9.192;2022-12-18T07:56:52;43.22;;;29.52;;
568;SDS011;269;48.884;9.192;2022-12-18T07:59:20;42.00;;;28.50;;
568;SDS011;269;48.884;9.192;2022-12-18T08:01:48;40.70;;;28.02;;
568;SDS011;269;48.884;9.192;2022-12-18T08:04:15;44.78;;;32.00;;
568;SDS011;269;48.884;9.192;2022-12-18T08:06:42;40.85;;;28.05;;
568;SDS011;269;48.884;9.192;2022-12-18T08:09:09;39.10;;;27.83;;
568;SDS011;269;48.884;9.192;2022-12-18T08:11:36;43.03;;;29.10;;
568;SDS011;269;48.884;9.192;2022-12-18T08:14:05;40.70;;;27.98;;
568;SDS011;269;48.884;9.192;2022-12-18T08:16:32;41.35;;;27.70;;
568;SDS011;269;48.884;9.192;2022-12-18T08:18:59;40.47;;;27.95;;
568;SDS011;269;48.884;9.192;2022-12-18T08:21:27;39.42;;;28.15;;
568;SDS011;269;48.884;9.192;2022-12-18T08:23:56;39.55;;;28.73;;
568;SDS011;269;48.884;9.192;2022-12-18T08:26:25;38.58;;;28.10;;
568;SDS011;269;48.884;9.192;2022-12-18T08:28:53;38.70;;;28.02;;
568;SDS011;269;48.884;9.192;2022-12-18T08:31:27;39.20;;;27.60;;
568;SDS011;269;48.884;9.192;2022-12-18T08:33:55;35.08;;;25.90;;
568;SDS011;269;48.884;9.192;2022-12-18T08:36:24;38.60;;;28.00;;
568;SDS011;269;48.884;9.192;2022-12-18T08:38:51;37.58;;;25.73;;
568;SDS011;269;48.884;9.192;2022-12-18T08:41:19;37.80;;;26.10;;
568;SDS011;269;48.884;9.192;2022-12-18T08:43:48;39.03;;;25.10;;
568;SDS011;269;48.884;9.192;2022-12-18T08:46:35;39.38;;;28.17;;
568;SDS011;269;48.884;9.192;2022-12-18T08:49:04;40.70;;;26.88;;
568;SDS011;269;48.884;9.192;2022-12-18T08:51:32;40.30;;;27.52;;
568;SDS011;269;48.884;9.192;2022-12-18T08:53:59;39.25;;;28.92;;
568;SDS011;269;48.884;9.192;2022-12-18T08:56:27;46.47;;;30.98;;
568;SDS011;269;48.884;9.192;2022-12-18T08:58:55;42.03;;;28.23;;
568;SDS011;269;48.884;9.192;2022-12-18T09:01:22;44.13;;;29.30;;
568;SDS011;269;48.884;9.192;2022-12-18T09:03:51;39.83;;;27.30;;
568;SDS011;269;48.884;9.192;2022-12-18T09:06:19;40.08;;;27.42;;
568;SDS011;269;48.884;9.192;2022-12-18T09:08:47;36.65;;;26.48;;
568;SDS011;269;48.884;9.192;2022-12-18T09:11:15;35.78;;;25.60;;
568;SDS011;269;48.884;9.192;2022-12-18T09:13:46;39.45;;;26.92;;
568;SDS011;269;48.884;9.192;2022-12-18T09:16:14;39.65;;;28.15;;
568;SDS011;269;48.884;9.192;2022-12-18T09:18:41;38.45;;;26.08;;
568;SDS011;269;48.884;9.192;2022-12-18T09:21:11;38.17;;;25.20;;
568;SDS011;269;48.884;9.192;2022-12-18T09:23:39;37.40;;;26.10;;
568;SDS011;269;48.884;9.192;2022-12-18T09:26:07;40.15;;;26.27;;
568;SDS011;269;48.884;9.192;2022-12-18T09:28:35;33.55;;;25.10;;
568;SDS011;269;48.884;9.192;2022-12-18T09:31:03;35.03;;;25.60;;
568;SDS011;269;48.884;9.192;2022-12-18T09:33:33;36.53;;;25.25;;
568;SDS011;269;48.884;9.192;2022-12-18T09:36:01;36.58;;;24.98;;
568;SDS011;269;48.884;9.192;2022-12-18T09:38:30;32.83;;;23.45;;
568;SDS011;269;48.884;9.192;2022-12-18T09:40:59;36.40;;;24.02;;
568;SDS011;269;48.884;9.192;2022-12-18T09:43:33;33.85;;;22.55;;
568;SDS011;269;48.884;9.192;2022-12-18T09:46:04;31.38;;;21.30;;
568;SDS011;269;48.884;9.192;2022-12-18T09:48:35;30.05;;;21.48;;
568;SDS011;269;48.884;9.192;2022-12-18T09:51:10;29.33;;;21.38;;
568;SDS011;269;48.884;9.192;2022-12-18T09:53:44;31.95;;;22.98;;
568;SDS011;269;48.884;9.192;2022-12-18T09:56:18;31.92;;;22.30;;
568;SDS011;269;48.884;9.192;2022-12-18T09:58:49;32.42;;;24.40;;
568;SDS011;269;48.884;9.192;2022-12-18T10:01:22;31.33;;;21.77;;
568;SDS011;269;48.884;9.192;2022-12-18T10:03:50;32.65;;;24.63;;
568;SDS011;269;48.884;9.192;2022-12-18T10:06:18;30.85;;;24.00;;
568;SDS011;269;48.884;9.192;2022-12-18T10:08:54;32.92;;;23.85;;
568;SDS011;269;48.884;9.192;2022-12-18T10:11:34;34.17;;;24.60;;
568;SDS011;269;48.884;9.192;2022-12-18T10:14:09;32.97;;;24.45;;
568;SDS011;269;48.884;9.192;2022-12-18T10:16:43;32.55;;;23.85;;
568;SDS011;269;48.884;9.192;2022-12-18T10:19:25;31.40;;;23.23;;
568;SDS011;269;48.884;9.192;2022-12-18T10:22:04;30.50;;;23.48;;
568;SDS011;269;48.884;9.192;2022-12-18T10:24:42;30.83;;;23.77;;
568;SDS011;269;48.884;9.192;2022-12-18T10:27:16;31.05;;;25.13;;
568;SDS011;269;48.884;9.192;2022-12-18T10:29:48;32.05;;;24.77;;
568;SDS011;269;48.884;9.192;2022-12-18T10:32:16;30.42;;;23.73;;
568;SDS011;269;48.884;9.192;2022-12-18T10:34:45;30.23;;;23.50;;
568;SDS011;269;48.884;9.192;2022-12-18T10:37:15;30.52;;;24.75;;
568;SDS011;269;48.884;9.192;2022-12-18T10:39:46;31.50;;;23.88;;
568;SDS011;269;48.884;9.192;2022-12-18T10:42:30;29.95;;;23.38;;
568;SDS011;269;48.884;9.192;2022-12-18T10:45:00;32.50;;;25.73;;
568;SDS011;269;48.884;9.192;2022-12-18T10:47:29;31.25;;;24.38;;
568;SDS011;269;48.884;9.192;2022-12-18T10:49:57;32.08;;;24.73;;
568;SDS011;269;48.884;9.192;2022-12-18T10:52:24;30.00;;;24.63;;
568;SDS011;269;48.884;9.192;2022-12-18T10:54:54;30.80;;;24.15;;
568;SDS011;269;48.884;9.192;2022-12-18T10:57:31;31.42;;;24.20;;
568;SDS011;269;48.884;9.192;2022-12-18T11:02:49;34.15;;;23.23;;
568;SDS011;269;48.884;9.192;2022-12-18T11:05:25;30.90;;;23.00;;
568;SDS011;269;48.884;9.192;2022-12-18T11:07:55;27.27;;;20.98;;
568;SDS011;269;48.884;9.192;2022-12-18T11:10:25;29.02;;;22.67;;
568;SDS011;269;48.884;9.192;2022-12-18T11:12:57;28.40;;;21.90;;
568;SDS011;269;48.884;9.192;2022-12-18T11:15:36;30.98;;;22.48;;
568;SDS011;269;48.884;9.192;2022-12-18T11:18:14;30.58;;;22.38;;
568;SDS011;269;48.884;9.192;2022-12-18T11:20:49;31.50;;;22.08;;
568;SDS011;269;48.884;9.192;2022-12-18T11:23:18;26.77;;;21.17;;
568;SDS011;269;48.884;9.192;2022-12-18T11:25:51;31.88;;;21.73;;
568;SDS011;269;48.884;9.192;2022-12-18T11:28:25;31.10;;;22.35;;
568;SDS011;269;48.884;9.192;2022-12-18T11:31:08;29.70;;;21.52;;
568;SDS011;269;48.884;9.192;2022-12-18T11:33:44;32.58;;;22.92;;
568;SDS011;269;48.884;9.192;2022-12-18T11:36:15;30.55;;;22.13;;
568;SDS011;269;48.884;9.192;2022-12-18T11:38:45;29.33;;;23.05;;
568;SDS011;269;48.884;9.192;2022-12-18T11:41:16;30.05;;;23.98;;
568;SDS011;269;48.884;9.192;2022-12-18T11:44:11;28.83;;;23.50;;
568;SDS011;269;48.884;9.192;2022-12-18T11:46:43;30.73;;;23.70;;
568;SDS011;269;48.884;9.192;2022-12-18T11:49:15;29.98;;;23.23;;
568;SDS011;269;48.884;9.192;2022-12-18T11:51:50;30.63;;;23.00;;
568;SDS011;269;48.884;9.192;2022-12-18T11:54:22;29.73;;;22.40;;
568;SDS011;269;48.884;9.192;2022-12-18T11:56:51;31.75;;;23.30;;
568;SDS011;269;48.884;9.192;2022-12-18T11:59:26;34.15;;;24.30;;
568;SDS011;269;48.884;9.192;2022-12-18T12:02:02;28.55;;;22.15;;
568;SDS011;269;48.884;9.192;2022-12-18T12:04:56;29.80;;;23.48;;
568;SDS011;269;48.884;9.192;2022-12-18T12:07:34;28.00;;;22.10;;
568;SDS011;269;48.884;9.192;2022-12-18T12:10:11;32.97;;;24.08;;
568;SDS011;269;48.884;9.192;2022-12-18T12:12:55;32.42;;;23.90;;
568;SDS011;269;48.884;9.192;2022-12-18T12:15:34;33.63;;;23.25;;
568;SDS011;269;48.884;9.192;2022-12-18T12:18:13;30.50;;;22.98;;
568;SDS011;269;48.884;9.192;2022-12-18T12:20:52;30.13;;;23.15;;
568;SDS011;269;48.884;9.192;2022-12-18T12:23:28;33.42;;;23.20;;
568;SDS011;269;48.884;9.192;2022-12-18T12:26:06;32.70;;;23.23;;
568;SDS011;269;48.884;9.192;2022-12-18T12:28:46;30.10;;;22.35;;
568;SDS011;269;48.884;9.192;2022-12-18T12:31:27;31.85;;;22.98;;
568;SDS011;269;48.884;9.192;2022-12-18T12:34:04;30.35;;;22.60;;
568;SDS011;269;48.884;9.192;2022-12-18T12:36:44;33.83;;;25.10;;
568;SDS011;269;48.884;9.192;2022-12-18T12:39:20;32.38;;;23.77;;
568;SDS011;269;48.884;9.192;2022-12-18T12:41:53;32.22;;;25.27;;
568;SDS011;269;48.884;9.192;2022-12-18T12:44:42;32.63;;;23.55;;
568;SDS011;269;48.884;9.192;2022-12-18T12:47:13;29.60;;;22.52;;
568;SDS011;269;48.884;9.192;2022-12-18T12:49:44;34.17;;;24.73;;
568;SDS011;269;48.884;9.192;2022-12-18T12:52:14;28.88;;;21.75;;
568;SDS011;269;48.884;9.192;2022-12-18T12:54:47;36.75;;;23.05;;
568;SDS011;269;48.884;9.192;2022-12-18T12:57:16;30.73;;;23.55;;
568;SDS011;269;48.884;9.192;2022-12-18T12:59:49;32.03;;;22.38;;
568;SDS011;269;48.884;9.192;2022-12-18T13:02:24;33.05;;;23.38;;
568;SDS011;269;48.884;9.192;2022-12-18T13:05:00;33.35;;;23.02;;
568;SDS011;269;48.884;9.192;2022-12-18T13:07:32;29.98;;;20.95;;
568;SDS011;269;48.884;9.192;2022-12-18T13:10:25;33.33;;;24.50;;
568;SDS011;269;48.884;9.192;2022-12-18T13:12:59;32.00;;;21.80;;
568;SDS011;269;48.884;9.192;2022-12-18T13:15:30;32.50;;;21.00;;
568;SDS011;269;48.884;9.192;2022-12-18T13:18:04;27.90;;;19.75;;
568;SDS011;269;48.884;9.192;2022-12-18T13:20:38;31.05;;;22.67;;
568;SDS011;269;48.884;9.192;2022-12-18T13:23:30;30.30;;;21.27;;
568;SDS011;269;48.884;9.192;2022-12-18T13:25:59;35.30;;;23.40;;
568;SDS011;269;48.884;9.192;2022-12-18T13:29:07;31.08;;;20.70;;
568;SDS011;269;48.884;9.192;2022-12-18T13:34:36;31.73;;;22.15;;
568;SDS011;269;48.884;9.192;2022-12-18T13:43:28;30.67;;;21.50;;
568;SDS011;269;48.884;9.192;2022-12-18T13:46:00;32.03;;;21.30;;
568;SDS011;269;48.884;9.192;2022-12-18T13:48:31;33.72;;;22.40;;
568;SDS011;269;48.884;9.192;2022-12-18T13:51:03;30.20;;;20.92;;
568;SDS011;269;48.884;9.192;2022-12-18T13:53:33;33.95;;;22.85;;
568;SDS011;269;48.884;9.192;2022-12-18T13:56:04;29.73;;;21.88;;
568;SDS011;269;48.884;9.192;2022-12-18T13:58:32;33.20;;;23.42;;
568;SDS011;269;48.884;9.192;2022-12-18T14:00:59;31.75;;;22.52;;
568;SDS011;269;48.884;9.192;2022-12-18T14:03:29;31.08;;;22.77;;
568;SDS011;269;48.884;9.192;2022-12-18T14:06:01;32.30;;;22.40;;
568;SDS011;269;48.884;9.192;2022-12-18T14:08:34;32.30;;;21.42;;
568;SDS011;269;48.884;9.192;2022-12-18T14:11:04;37.72;;;23.23;;
568;SDS011;269;48.884;9.192;2022-12-18T14:13:35;34.42;;;22.00;;
568;SDS011;269;48.884;9.192;2022-12-18T14:16:05;32.50;;;20.95;;
568;SDS011;269;48.884;9.192;2022-12-18T14:18:37;30.58;;;21.63;;
568;SDS011;269;48.884;9.192;2022-12-18T14:21:17;34.35;;;22.77;;
568;SDS011;269;48.884;9.192;2022-12-18T14:23:47;35.13;;;23.77;;
568;SDS011;269;48.884;9.192;2022-12-18T14:26:19;37.15;;;22.13;;
568;SDS011;269;48.884;9.192;2022-12-18T14:28:50;34.88;;;23.10;;
568;SDS011;269;48.884;9.192;2022-12-18T14:31:19;33.83;;;23.25;;
568;SDS011;269;48.884;9.192;2022-12-18T14:33:47;32.42;;;22.10;;
568;SDS011;269;48.884;9.192;2022-12-18T14:36:17;37.95;;;22.95;;
568;SDS011;269;48.884;9.192;2022-12-18T14:38:47;34.10;;;22.48;;
568;SDS011;269;48.884;9.192;2022-12-18T14:41:16;35.13;;;23.13;;
568;SDS011;269;48.884;9.192;2022-12-18T14:43:45;35.92;;;24.48;;
568;SDS011;269;48.884;9.192;2022-12-18T14:46:30;38.15;;;24.70;;
568;SDS011;269;48.884;9.192;2022-12-18T14:49:01;37.25;;;23.45;;
568;SDS011;269;48.884;9.192;2022-12-18T14:51:33;34.53;;;22.80;;
568;SDS011;269;48.884;9.192;2022-12-18T14:54:03;36.10;;;24.17;;
568;SDS011;269;48.884;9.192;2022-12-18T14:56:33;34.05;;;22.15;;
568;SDS011;269;48.884;9.192;2022-12-18T14:59:02;36.38;;;24.52;;
568;SDS011;269;48.884;9.192;2022-12-18T15:01:31;34.47;;;22.30;;
568;SDS011;269;48.884;9.192;2022-12-18T15:04:02;36.22;;;24.52;;
568;SDS011;269;48.884;9.192;2022-12-18T15:06:33;36.10;;;24.27;;
568;SDS011;269;48.884;9.192;2022-12-18T15:09:03;32.95;;;23.55;;
568;SDS011;269;48.884;9.192;2022-12-18T15:11:47;37.95;;;25.83;;
568;SDS011;269;48.884;9.192;2022-12-18T15:14:22;35.25;;;24.23;;
568;SDS011;269;48.884;9.192;2022-12-18T15:16:50;38.15;;;25.85;;
568;SDS011;269;48.884;9.192;2022-12-18T15:19:19;36.97;;;26.10;;
568;SDS011;269;48.884;9.192;2022-12-18T15:21:50;35.58;;;25.55;;
568;SDS011;269;48.884;9.192;2022-12-18T15:24:20;40.10;;;24.90;;
568;SDS011;269;48.884;9.192;2022-12-18T15:26:50;36.97;;;23.85;;
568;SDS011;269;48.884;9.192;2022-12-18T15:29:19;40.63;;;25.80;;
568;SDS011;269;48.884;9.192;2022-12-18T15:32:00;37.60;;;25.40;;
568;SDS011;269;48.884;9.192;2022-12-18T15:34:29;42.33;;;27.30;;
568;SDS011;269;48.884;9.192;2022-12-18T15:37:00;40.28;;;26.38;;
568;SDS011;269;48.884;9.192;2022-12-18T15:39:27;37.30;;;27.23;;
568;SDS011;269;48.884;9.192;2022-12-18T15:41:55;38.45;;;26.50;;
568;SDS011;269;48.884;9.192;2022-12-18T15:44:39;39.50;;;26.35;;
568;SDS011;269;48.884;9.192;2022-12-18T15:47:10;40.65;;;28.23;;
568;SDS011;269;48.884;9.192;2022-12-18T15:49:39;43.38;;;27.02;;
568;SDS011;269;48.884;9.192;2022-12-18T15:52:07;38.78;;;26.92;;